createdAt,value
2023-01-09T00:02:05.800Z,10.09
2023-01-09T00:04:32.760Z,10.04
2023-01-09T00:06:59.607Z,10.06
2023-01-09T00:09:26.463Z,10.06
2023-01-09T00:11:55.097Z,10.07
2023-01-09T00:14:23.060Z,10.06
2023-01-09T00:16:50.598Z,10.02
2023-01-09T00:19:17.491Z,10.00
2023-01-09T00:21:44.231Z,10.05
2023-01-09T00:24:10.967Z,9.95
2023-01-09T00:26:37.702Z,9.96
2023-01-09T00:29:06.221Z,10.03
2023-01-09T00:31:33.061Z,10.00
2023-01-09T00:34:05.925Z,9.91
2023-01-09T00:36:32.793Z,9.91
2023-01-09T00:38:59.575Z,9.92
2023-01-09T00:41:31.355Z,9.92
2023-01-09T00:44:03.421Z,9.89
2023-01-09T00:46:36.627Z,9.94
2023-01-09T00:49:05.737Z,9.89
2023-01-09T00:51:32.496Z,10.01
2023-01-09T00:54:00.003Z,10.03
2023-01-09T00:56:26.855Z,10.00
2023-01-09T00:58:54.456Z,9.96
2023-01-09T01:01:21.660Z,10.06
2023-01-09T01:03:48.588Z,10.14
2023-01-09T01:06:34.021Z,10.16
2023-01-09T01:09:00.893Z,10.27
2023-01-09T01:11:27.728Z,10.30
2023-01-09T01:13:54.660Z,10.33
2023-01-09T01:16:21.503Z,10.38
2023-01-09T01:18:48.836Z,10.43
2023-01-09T01:21:15.691Z,10.47
2023-01-09T01:23:42.835Z,10.41
2023-01-09T01:26:17.222Z,10.37
2023-01-09T01:28:44.181Z,10.34
2023-01-09T01:31:16.955Z,10.31
2023-01-09T01:33:43.918Z,10.18
2023-01-09T01:36:11.259Z,10.11
2023-01-09T01:38:38.111Z,10.06
2023-01-09T01:41:05.452Z,10.09
2023-01-09T01:43:53.691Z,10.10
2023-01-09T01:46:20.876Z,10.04
2023-01-09T01:48:52.835Z,10.01
2023-01-09T01:51:23.680Z,10.06
2023-01-09T01:53:58.809Z,10.15
2023-01-09T01:56:42.281Z,10.18
2023-01-09T01:59:24.893Z,10.14
2023-01-09T02:01:56.836Z,10.18
2023-01-09T02:04:23.724Z,10.16
2023-01-09T02:06:53.124Z,10.20
2023-01-09T02:09:22.962Z,10.20
2023-01-09T02:11:53.037Z,10.20
2023-01-09T02:14:22.393Z,10.23
2023-01-09T02:16:54.519Z,10.22
2023-01-09T02:19:53.734Z,10.26
2023-01-09T02:22:26.360Z,10.33
2023-01-09T02:25:11.381Z,10.40
2023-01-09T02:28:10.403Z,10.37
2023-01-09T02:30:44.642Z,10.43
2023-01-09T02:33:27.417Z,10.49
2023-01-09T02:36:15.492Z,10.41
2023-01-09T02:38:55.198Z,10.37
2023-01-09T02:41:44.782Z,10.38
2023-01-09T02:44:23.019Z,10.35
2023-01-09T02:47:01.465Z,10.38
2023-01-09T02:49:29.392Z,10.37
2023-01-09T02:52:02.818Z,10.34
2023-01-09T02:55:18.505Z,10.33
2023-01-09T02:58:01.911Z,10.26
2023-01-09T03:00:34.518Z,10.21
2023-01-09T03:03:21.587Z,10.34
2023-01-09T03:05:59.164Z,10.38
2023-01-09T03:08:46.329Z,10.53
2023-01-09T03:11:13.214Z,10.47
2023-01-09T03:13:47.098Z,10.51
2023-01-09T03:16:19.507Z,10.53
2023-01-09T03:18:49.513Z,10.53
2023-01-09T03:21:16.411Z,10.52
2023-01-09T03:23:55.742Z,10.49
2023-01-09T03:26:23.706Z,10.45
2023-01-09T03:28:50.863Z,10.48
2023-01-09T03:31:18.212Z,10.45
2023-01-09T03:33:45.212Z,10.43
2023-01-09T03:36:13.626Z,10.38
2023-01-09T03:38:40.682Z,10.38
2023-01-09T03:41:07.891Z,10.39
2023-01-09T03:43:35.278Z,10.35
2023-01-09T03:46:02.677Z,10.33
2023-01-09T03:48:29.724Z,10.32
2023-01-09T03:50:57.054Z,10.39
2023-01-09T03:53:26.946Z,10.37
2023-01-09T03:55:54.549Z,10.37
2023-01-09T03:58:22.457Z,10.34
2023-01-09T04:00:49.800Z,10.39
2023-01-09T04:03:21.108Z,10.40
2023-01-09T04:05:49.726Z,10.35
2023-01-09T04:08:17.241Z,10.26
2023-01-09T04:10:45.527Z,10.20
2023-01-09T04:13:12.631Z,10.31
2023-01-09T04:15:39.426Z,10.23
2023-01-09T04:18:06.172Z,10.21
2023-01-09T04:20:33.325Z,10.19
2023-01-09T04:23:00.156Z,10.12
2023-01-09T04:25:27.701Z,10.02
2023-01-09T04:27:54.444Z,10.04
2023-01-09T04:30:21.307Z,10.00
2023-01-09T04:32:48.024Z,9.89
2023-01-09T04:35:14.857Z,9.81
2023-01-09T04:37:41.667Z,9.69
2023-01-09T04:40:12.242Z,9.71
2023-01-09T04:42:39.797Z,9.71
2023-01-09T04:45:07.981Z,9.54
2023-01-09T04:47:35.022Z,9.50
2023-01-09T04:50:02.049Z,9.56
2023-01-09T04:52:28.876Z,9.43
2023-01-09T04:54:55.620Z,9.35
2023-01-09T04:57:22.591Z,9.38
2023-01-09T04:59:49.268Z,9.45
2023-01-09T05:02:16.178Z,9.40
2023-01-09T05:04:43.087Z,9.40
2023-01-09T05:07:09.930Z,9.22
2023-01-09T05:09:36.940Z,9.20
2023-01-09T05:12:04.163Z,9.17
2023-01-09T05:14:31.219Z,9.21
2023-01-09T05:16:57.936Z,9.16
2023-01-09T05:19:25.492Z,9.11
2023-01-09T05:21:52.272Z,9.10
2023-01-09T05:24:19.146Z,9.01
2023-01-09T05:26:45.921Z,8.99
2023-01-09T05:29:12.715Z,8.94
2023-01-09T05:31:39.528Z,8.91
2023-01-09T05:34:06.395Z,8.88
2023-01-09T05:36:33.214Z,8.94
2023-01-09T05:39:00.388Z,8.87
2023-01-09T05:41:27.218Z,8.87
2023-01-09T05:43:53.987Z,8.85
2023-01-09T05:46:20.719Z,8.79
2023-01-09T05:48:47.498Z,8.79
2023-01-09T05:51:14.383Z,8.80
2023-01-09T05:53:41.112Z,8.77
2023-01-09T05:56:08.119Z,8.72
2023-01-09T05:58:34.831Z,8.66
2023-01-09T06:01:01.716Z,8.61
2023-01-09T06:03:28.460Z,8.52
2023-01-09T06:05:55.260Z,8.62
2023-01-09T06:08:22.079Z,8.54
2023-01-09T06:10:48.797Z,8.49
2023-01-09T06:13:15.640Z,8.55
2023-01-09T06:15:42.857Z,8.54
2023-01-09T06:18:09.681Z,8.54
2023-01-09T06:20:36.429Z,8.49
2023-01-09T06:23:03.262Z,8.47
2023-01-09T06:25:30.051Z,8.44
2023-01-09T06:27:56.809Z,8.46
2023-01-09T06:30:23.539Z,8.39
2023-01-09T06:32:51.574Z,8.28
2023-01-09T06:35:20.550Z,8.26
2023-01-09T06:37:48.526Z,8.31
2023-01-09T06:40:16.094Z,8.15
2023-01-09T06:42:46.252Z,8.14
2023-01-09T06:45:13.884Z,8.02
2023-01-09T06:47:41.297Z,7.96
2023-01-09T06:50:09.460Z,8.03
2023-01-09T06:52:37.346Z,8.03
2023-01-09T06:55:04.475Z,8.06
2023-01-09T06:57:31.269Z,8.06
2023-01-09T06:59:58.054Z,7.99
2023-01-09T07:02:24.961Z,7.98
2023-01-09T07:04:51.657Z,7.96
2023-01-09T07:07:19.821Z,7.85
2023-01-09T07:09:46.547Z,7.76
2023-01-09T07:12:14.888Z,7.71
2023-01-09T07:14:42.012Z,7.68
2023-01-09T07:17:13.678Z,7.66
2023-01-09T07:19:40.843Z,7.56
2023-01-09T07:22:08.020Z,7.53
2023-01-09T07:24:35.254Z,7.53
2023-01-09T07:27:02.573Z,7.56
2023-01-09T07:29:30.106Z,7.58
2023-01-09T07:31:57.237Z,7.56
2023-01-09T07:34:23.968Z,7.57
2023-01-09T07:36:51.327Z,7.52
2023-01-09T07:39:18.144Z,7.50
2023-01-09T07:41:45.263Z,7.51
2023-01-09T07:44:12.641Z,7.50
2023-01-09T07:46:39.567Z,7.55
2023-01-09T07:49:06.601Z,7.53
2023-01-09T07:51:33.433Z,7.55
2023-01-09T07:54:00.178Z,7.56
2023-01-09T07:56:27.141Z,7.55
2023-01-09T07:58:53.820Z,7.59
2023-01-09T08:01:20.657Z,7.60
2023-01-09T08:03:47.388Z,7.64
2023-01-09T08:06:14.158Z,7.73
2023-01-09T08:08:40.943Z,7.68
2023-01-09T08:11:07.677Z,7.69
2023-01-09T08:13:34.365Z,7.68
2023-01-09T08:16:01.137Z,7.70
2023-01-09T08:18:27.917Z,7.70
2023-01-09T08:20:54.702Z,7.86
2023-01-09T08:23:21.581Z,7.81
2023-01-09T08:25:48.408Z,7.80
2023-01-09T08:28:15.238Z,7.78
2023-01-09T08:30:41.989Z,7.78
2023-01-09T08:33:08.772Z,7.81
2023-01-09T08:35:35.687Z,7.75
2023-01-09T08:38:02.756Z,7.69
2023-01-09T08:40:29.737Z,7.67
2023-01-09T08:43:14.899Z,7.72
2023-01-09T08:46:00.059Z,7.68
2023-01-09T08:48:26.874Z,7.64
2023-01-09T08:50:54.390Z,7.62
2023-01-09T08:53:21.287Z,7.60
2023-01-09T08:55:48.093Z,7.62
2023-01-09T08:58:15.018Z,7.60
2023-01-09T09:00:41.854Z,7.64
2023-01-09T09:03:10.361Z,7.59
2023-01-09T09:05:37.520Z,7.57
2023-01-09T09:08:04.781Z,7.55
2023-01-09T09:10:31.514Z,7.45
2023-01-09T09:12:59.633Z,7.42
2023-01-09T09:15:28.447Z,7.45
2023-01-09T09:17:57.081Z,7.46
2023-01-09T09:20:26.332Z,7.47
2023-01-09T09:22:53.571Z,7.64
2023-01-09T09:25:20.799Z,7.60
2023-01-09T09:27:48.244Z,7.68
2023-01-09T09:30:17.386Z,7.64
2023-01-09T09:32:44.580Z,7.65
2023-01-09T09:35:11.913Z,7.60
2023-01-09T09:37:39.486Z,7.51
2023-01-09T09:40:18.013Z,7.47
2023-01-09T09:43:32.928Z,7.35
2023-01-09T09:46:24.955Z,7.39
2023-01-09T09:48:59.536Z,7.45
2023-01-09T09:51:35.478Z,7.39
2023-01-09T09:54:24.802Z,7.43
2023-01-09T09:56:56.323Z,7.31
2023-01-09T09:59:27.212Z,7.25
2023-01-09T10:01:59.228Z,7.29
2023-01-09T10:04:28.660Z,7.32
2023-01-09T10:07:01.069Z,7.32
2023-01-09T10:09:54.699Z,7.39
2023-01-09T10:12:27.915Z,7.30
2023-01-09T10:14:57.943Z,7.21
2023-01-09T10:17:32.358Z,7.19
2023-01-09T10:20:24.900Z,7.25
2023-01-09T10:23:02.581Z,7.18
2023-01-09T10:25:45.135Z,7.17
2023-01-09T10:28:38.231Z,7.06
2023-01-09T10:31:12.268Z,7.14
2023-01-09T10:33:41.904Z,7.23
2023-01-09T10:36:14.534Z,7.23
2023-01-09T10:38:47.500Z,7.11
2023-01-09T10:41:30.213Z,7.13
2023-01-09T10:44:21.248Z,7.25
2023-01-09T10:46:54.759Z,7.24
2023-01-09T10:49:23.984Z,7.24
2023-01-09T10:51:52.865Z,7.30
2023-01-09T10:54:23.537Z,7.28
2023-01-09T10:56:58.951Z,7.29
2023-01-09T10:59:26.494Z,7.27
2023-01-09T11:01:53.922Z,7.12
2023-01-09T11:04:26.735Z,7.01
2023-01-09T11:06:59.933Z,6.95
2023-01-09T11:09:26.811Z,6.95
2023-01-09T11:11:53.708Z,7.03
2023-01-09T11:14:31.262Z,6.98
2023-01-09T11:17:02.222Z,6.93
2023-01-09T11:19:31.296Z,6.98
2023-01-09T11:22:09.284Z,7.03
2023-01-09T11:24:36.416Z,6.93
2023-01-09T11:27:24.152Z,6.81
2023-01-09T11:30:05.586Z,6.75
2023-01-09T11:32:34.115Z,6.80
2023-01-09T11:35:04.520Z,6.63
2023-01-09T11:37:32.814Z,6.72
2023-01-09T11:40:00.971Z,6.65
2023-01-09T11:42:48.321Z,6.46
2023-01-09T11:45:27.137Z,6.45
2023-01-09T11:47:53.904Z,6.40
2023-01-09T11:50:29.224Z,6.27
2023-01-09T11:53:16.813Z,6.30
2023-01-09T11:55:45.375Z,6.32
2023-01-09T11:58:15.241Z,6.28
2023-01-09T12:00:48.066Z,6.30
2023-01-09T12:03:31.559Z,6.23
2023-01-09T12:06:07.998Z,6.21
2023-01-09T12:08:37.629Z,6.24
2023-01-09T12:11:17.833Z,6.17
2023-01-09T12:14:05.148Z,6.10
2023-01-09T12:16:56.405Z,6.10
2023-01-09T12:19:34.400Z,6.12
2023-01-09T12:22:30.462Z,6.04
2023-01-09T12:25:06.043Z,6.03
2023-01-09T12:27:51.396Z,6.11
2023-01-09T12:30:49.402Z,6.10
2023-01-09T12:33:31.904Z,6.06
2023-01-09T12:36:15.667Z,6.02
2023-01-09T12:38:56.082Z,5.88
2023-01-09T12:41:23.191Z,5.93
2023-01-09T12:44:30.746Z,5.89
2023-01-09T12:47:39.627Z,5.97
2023-01-09T12:50:38.228Z,5.97
2023-01-09T12:53:25.867Z,5.84
2023-01-09T12:56:06.141Z,5.78
2023-01-09T12:58:52.165Z,5.78
2023-01-09T13:01:28.068Z,5.79
2023-01-09T13:04:13.952Z,5.75
2023-01-09T13:06:48.684Z,5.74
2023-01-09T13:09:26.207Z,5.78
2023-01-09T13:12:04.460Z,5.90
2023-01-09T13:14:52.776Z,5.74
2023-01-09T13:17:27.827Z,5.81
2023-01-09T13:19:54.678Z,5.93
2023-01-09T13:22:25.992Z,6.02
2023-01-09T13:25:31.887Z,6.02
2023-01-09T13:28:02.505Z,5.90
2023-01-09T13:30:38.478Z,5.93
2023-01-09T13:33:23.116Z,5.91
2023-01-09T13:35:50.316Z,5.93
2023-01-09T13:38:20.971Z,6.03
2023-01-09T13:41:16.189Z,6.04
2023-01-09T13:43:55.209Z,6.13
2023-01-09T13:46:22.816Z,6.31
2023-01-09T13:48:49.496Z,6.50
2023-01-09T13:51:44.324Z,6.59
2023-01-09T13:54:11.262Z,6.59
2023-01-09T13:57:19.102Z,6.49
2023-01-09T13:59:49.909Z,6.48
2023-01-09T14:02:35.636Z,6.51
2023-01-09T14:05:04.887Z,6.60
2023-01-09T14:07:39.726Z,6.64
2023-01-09T14:10:21.831Z,6.82
2023-01-09T14:12:50.751Z,6.96
2023-01-09T14:15:44.898Z,7.03
2023-01-09T14:18:25.555Z,7.04
2023-01-09T14:21:00.244Z,7.11
2023-01-09T14:24:04.392Z,7.08
2023-01-09T14:26:48.168Z,7.08
2023-01-09T14:29:44.372Z,7.14
2023-01-09T14:32:23.319Z,7.21
2023-01-09T14:34:57.853Z,7.19
2023-01-09T14:37:27.359Z,7.22
2023-01-09T14:39:55.491Z,7.16
2023-01-09T14:42:27.383Z,7.23
2023-01-09T14:45:03.379Z,7.26
2023-01-09T14:47:53.414Z,7.27
2023-01-09T14:50:29.105Z,7.28
2023-01-09T14:53:12.867Z,7.34
2023-01-09T14:55:42.685Z,7.38
2023-01-09T14:58:19.314Z,7.40
2023-01-09T15:00:57.407Z,7.38
2023-01-09T15:03:27.005Z,7.36
2023-01-09T15:05:54.278Z,7.26
2023-01-09T15:08:26.107Z,7.22
2023-01-09T15:10:55.328Z,7.18
2023-01-09T15:13:33.125Z,7.12
2023-01-09T15:16:01.718Z,7.07
2023-01-09T15:18:32.737Z,7.10
2023-01-09T15:21:03.095Z,7.04
2023-01-09T15:23:31.091Z,7.08
2023-01-09T15:26:13.034Z,7.09
2023-01-09T15:28:44.036Z,7.11
2023-01-09T15:31:17.309Z,7.11
2023-01-09T15:33:46.565Z,7.07
2023-01-09T15:36:26.288Z,7.09
2023-01-09T15:38:54.434Z,7.09
2023-01-09T15:41:48.587Z,7.09
2023-01-09T15:44:27.681Z,7.02
2023-01-09T15:46:59.889Z,7.06
2023-01-09T15:49:27.045Z,7.07
2023-01-09T15:51:54.344Z,7.03
2023-01-09T15:54:29.344Z,7.01
2023-01-09T15:57:26.096Z,6.99
2023-01-09T15:59:57.457Z,6.95
2023-01-09T16:02:44.668Z,6.93
2023-01-09T16:05:18.532Z,6.93
2023-01-09T16:07:47.057Z,6.90
2023-01-09T16:10:26.614Z,6.89
2023-01-09T16:12:54.777Z,6.87
2023-01-09T16:15:22.134Z,6.87
2023-01-09T16:18:13.935Z,6.81
2023-01-09T16:20:41.186Z,6.81
2023-01-09T16:23:29.068Z,6.80
2023-01-09T16:26:23.829Z,6.79
2023-01-09T16:28:51.175Z,6.76
2023-01-09T16:31:31.266Z,6.75
2023-01-09T16:34:04.613Z,6.68
2023-01-09T16:36:33.579Z,6.69
2023-01-09T16:39:03.029Z,6.71
2023-01-09T16:41:48.755Z,6.66
2023-01-09T16:44:15.649Z,6.68
2023-01-09T16:46:44.404Z,6.67
2023-01-09T16:49:27.185Z,6.63
2023-01-09T16:51:54.623Z,6.59
2023-01-09T16:54:21.764Z,6.62
2023-01-09T16:56:52.297Z,6.56
2023-01-09T16:59:25.266Z,6.60
2023-01-09T17:01:53.616Z,6.59
2023-01-09T17:04:20.883Z,6.59
2023-01-09T17:06:49.149Z,6.53
2023-01-09T17:09:18.397Z,6.53
2023-01-09T17:11:45.435Z,6.46
2023-01-09T17:14:15.251Z,6.49
2023-01-09T17:16:45.904Z,6.47
2023-01-09T17:19:18.297Z,6.50
2023-01-09T17:21:45.741Z,6.51
2023-01-09T17:24:30.928Z,6.45
2023-01-09T17:27:16.587Z,6.38
2023-01-09T17:29:44.587Z,6.42
2023-01-09T17:32:18.684Z,6.43
2023-01-09T17:34:45.492Z,6.36
2023-01-09T17:37:16.908Z,6.34
2023-01-09T17:39:44.698Z,6.32
2023-01-09T17:42:11.707Z,6.32
2023-01-09T17:44:38.507Z,6.25
2023-01-09T17:47:06.182Z,6.26
2023-01-09T17:49:33.007Z,6.24
2023-01-09T17:51:59.785Z,6.21
2023-01-09T17:54:26.587Z,6.17
2023-01-09T17:56:54.289Z,6.21
2023-01-09T17:59:21.126Z,6.18
2023-01-09T18:01:47.947Z,6.15
2023-01-09T18:04:14.881Z,6.12
2023-01-09T18:06:41.611Z,6.16
2023-01-09T18:09:14.282Z,6.12
2023-01-09T18:11:41.470Z,6.13
2023-01-09T18:14:08.949Z,6.10
2023-01-09T18:16:36.137Z,6.07
2023-01-09T18:19:04.876Z,6.09
2023-01-09T18:21:31.831Z,6.10
2023-01-09T18:24:00.557Z,6.13
2023-01-09T18:26:27.463Z,6.05
2023-01-09T18:29:00.890Z,6.10
2023-01-09T18:31:30.453Z,6.12
2023-01-09T18:33:58.884Z,6.05
2023-01-09T18:36:30.779Z,6.05
2023-01-09T18:39:02.561Z,6.06
2023-01-09T18:41:30.592Z,5.95
2023-01-09T18:43:59.641Z,5.94
2023-01-09T18:46:30.785Z,5.91
2023-01-09T18:49:00.260Z,5.93
2023-01-09T18:51:28.370Z,5.95
2023-01-09T18:53:55.962Z,5.89
2023-01-09T18:56:24.761Z,5.88
2023-01-09T18:58:57.505Z,5.94
2023-01-09T19:01:25.830Z,5.90
2023-01-09T19:03:53.195Z,5.85
2023-01-09T19:06:20.150Z,5.86
2023-01-09T19:08:46.866Z,5.84
2023-01-09T19:11:13.694Z,5.82
2023-01-09T19:13:40.582Z,5.82
2023-01-09T19:16:09.175Z,5.78
2023-01-09T19:18:38.504Z,5.74
2023-01-09T19:21:15.083Z,5.78
2023-01-09T19:23:43.946Z,5.73
2023-01-09T19:26:23.907Z,5.67
2023-01-09T19:28:51.890Z,5.64
2023-01-09T19:31:18.933Z,5.66
2023-01-09T19:33:45.891Z,5.69
2023-01-09T19:36:12.720Z,5.68
2023-01-09T19:38:39.589Z,5.70
2023-01-09T19:41:14.812Z,5.70
2023-01-09T19:43:42.104Z,5.67
2023-01-09T19:46:11.242Z,5.61
2023-01-09T19:48:38.573Z,5.64
2023-01-09T19:51:06.830Z,5.62
2023-01-09T19:53:35.466Z,5.61
2023-01-09T19:56:22.956Z,5.62
2023-01-09T19:58:52.108Z,5.56
2023-01-09T20:01:23.715Z,5.58
2023-01-09T20:03:51.545Z,5.59
2023-01-09T20:06:24.121Z,5.58
2023-01-09T20:08:56.708Z,5.57
2023-01-09T20:11:25.769Z,5.56
2023-01-09T20:13:53.016Z,5.55
2023-01-09T20:16:22.700Z,5.48
2023-01-09T20:18:49.665Z,5.52
2023-01-09T20:21:18.544Z,5.48
2023-01-09T20:23:45.309Z,5.55
2023-01-09T20:26:12.147Z,5.54
2023-01-09T20:28:38.912Z,5.55
2023-01-09T20:31:10.603Z,5.47
2023-01-09T20:33:37.651Z,5.50
2023-01-09T20:36:05.229Z,5.46
2023-01-09T20:38:33.508Z,5.50
2023-01-09T20:41:11.135Z,5.50
2023-01-09T20:43:39.295Z,5.47
2023-01-09T20:46:06.883Z,5.50
2023-01-09T20:48:33.864Z,5.43
2023-01-09T20:51:08.388Z,5.43
2023-01-09T20:53:35.698Z,5.43
2023-01-09T20:56:05.313Z,5.43
2023-01-09T20:58:32.327Z,5.42
2023-01-09T21:01:06.448Z,5.41
2023-01-09T21:03:33.395Z,5.44
2023-01-09T21:06:04.310Z,5.44
2023-01-09T21:08:31.101Z,5.44
2023-01-09T21:10:58.217Z,5.42
2023-01-09T21:13:26.005Z,5.44
2023-01-09T21:15:52.777Z,5.48
2023-01-09T21:18:19.720Z,5.48
2023-01-09T21:20:46.451Z,5.50
2023-01-09T21:23:13.224Z,5.52
2023-01-09T21:25:41.398Z,5.47
2023-01-09T21:28:12.079Z,5.50
2023-01-09T21:30:38.957Z,5.46
2023-01-09T21:33:05.737Z,5.47
2023-01-09T21:35:32.490Z,5.44
2023-01-09T21:37:59.178Z,5.44
2023-01-09T21:40:25.963Z,5.46
2023-01-09T21:43:25.058Z,5.48
2023-01-09T21:46:10.399Z,5.49
2023-01-09T21:48:37.327Z,5.50
2023-01-09T21:51:04.266Z,5.49
2023-01-09T21:53:31.199Z,5.50
2023-01-09T21:55:57.923Z,5.41
2023-01-09T21:58:24.766Z,5.44
2023-01-09T22:00:57.093Z,5.41
2023-01-09T22:03:23.923Z,5.40
2023-01-09T22:05:50.749Z,5.33
2023-01-09T22:08:17.508Z,5.35
2023-01-09T22:10:44.242Z,5.31
2023-01-09T22:13:16.043Z,5.28
2023-01-09T22:15:44.809Z,5.27
2023-01-09T22:18:11.661Z,5.30
2023-01-09T22:20:38.409Z,5.29
2023-01-09T22:23:05.111Z,5.30
2023-01-09T22:25:31.953Z,5.30
2023-01-09T22:27:58.717Z,5.30
2023-01-09T22:30:25.527Z,5.29
2023-01-09T22:32:52.280Z,5.33
2023-01-09T22:35:18.995Z,5.32
2023-01-09T22:37:45.783Z,5.27
2023-01-09T22:40:12.947Z,5.26
2023-01-09T22:42:39.812Z,5.23
2023-01-09T22:45:07.506Z,5.24
2023-01-09T22:47:34.293Z,5.21
2023-01-09T22:50:01.248Z,5.19
2023-01-09T22:52:28.745Z,5.19
2023-01-09T22:54:55.570Z,5.17
2023-01-09T22:57:22.350Z,5.17
2023-01-09T22:59:49.169Z,5.19
2023-01-09T23:02:15.960Z,5.15
2023-01-09T23:04:42.814Z,5.16
2023-01-09T23:07:09.610Z,5.16
2023-01-09T23:09:36.388Z,5.19
2023-01-09T23:12:03.365Z,5.12
2023-01-09T23:14:32.932Z,5.12
2023-01-09T23:16:59.920Z,5.08
2023-01-09T23:19:26.740Z,5.09
2023-01-09T23:21:53.612Z,5.08
2023-01-09T23:24:20.450Z,5.09
2023-01-09T23:26:47.733Z,5.10
2023-01-09T23:29:14.815Z,5.12
2023-01-09T23:31:41.797Z,5.10
2023-01-09T23:34:09.094Z,5.13
2023-01-09T23:36:36.013Z,5.07
2023-01-09T23:39:04.264Z,5.11
2023-01-09T23:41:49.769Z,5.09
2023-01-09T23:44:16.605Z,5.06
2023-01-09T23:46:43.328Z,5.04
2023-01-09T23:49:10.460Z,5.07
2023-01-09T23:51:37.252Z,5.06
2023-01-09T23:54:04.427Z,5.05
2023-01-09T23:56:33.878Z,5.05
2023-01-09T23:59:06.201Z,5.07
